createdAt,value
2023-03-12T00:17:57.184Z,3.85
2023-03-12T00:38:02.969Z,3.97
2023-03-12T00:58:08.810Z,3.77
2023-03-12T01:18:14.578Z,3.46
2023-03-12T01:38:20.325Z,3.29
2023-03-12T01:58:26.100Z,3.45
2023-03-12T02:18:31.827Z,3.61
2023-03-12T02:38:37.607Z,3.48
2023-03-12T02:58:43.413Z,3.16
2023-03-12T03:18:49.151Z,3.21
2023-03-12T03:38:54.924Z,2.88
2023-03-12T04:01:24.209Z,4.04
2023-03-12T04:19:09.958Z,3.19
2023-03-12T04:39:15.712Z,3.15
2023-03-12T04:59:21.502Z,3.51
2023-03-12T05:19:27.208Z,3.72
2023-03-12T05:39:32.958Z,4.47
2023-03-12T05:59:38.746Z,3.83
2023-03-12T06:19:44.501Z,3.68
2023-03-12T06:39:50.279Z,3.90
2023-03-12T06:59:55.950Z,3.97
2023-03-12T07:20:01.737Z,4.21
2023-03-12T07:40:07.593Z,4.27
2023-03-12T08:00:13.241Z,4.12
2023-03-12T08:20:18.940Z,4.43
2023-03-12T08:40:24.733Z,7.80
2023-03-12T09:00:30.444Z,3.62
2023-03-12T09:20:36.176Z,3.18
2023-03-12T09:40:42.121Z,3.06
2023-03-12T10:00:47.922Z,1.96
2023-03-12T10:20:53.694Z,2.62
2023-03-12T10:40:59.443Z,7.92
2023-03-12T11:01:05.251Z,2.91
2023-03-12T11:21:10.969Z,3.10
2023-03-12T11:41:16.677Z,4.07
2023-03-12T12:01:22.446Z,5.06
2023-03-12T12:21:28.102Z,5.53
2023-03-12T12:41:33.858Z,4.09
2023-03-12T13:01:40.154Z,6.10
2023-03-12T13:21:46.361Z,5.63
2023-03-12T13:41:52.109Z,5.97
2023-03-12T14:01:57.856Z,7.47
2023-03-12T14:22:03.576Z,7.01
2023-03-12T14:42:09.305Z,8.65
2023-03-12T15:02:15.060Z,8.68
2023-03-12T15:22:20.808Z,7.37
2023-03-12T15:42:26.625Z,8.42
2023-03-12T16:02:32.445Z,7.78
2023-03-12T16:22:38.195Z,11.63
2023-03-12T16:42:44.009Z,9.44
2023-03-12T17:02:49.801Z,9.82
2023-03-12T17:22:57.122Z,9.87
2023-03-12T17:43:02.488Z,10.12
2023-03-12T18:03:08.303Z,11.64
2023-03-12T18:23:13.997Z,10.67
2023-03-12T18:43:21.822Z,12.26
2023-03-12T19:03:25.070Z,13.32
2023-03-12T19:23:30.757Z,15.08
2023-03-12T19:43:36.563Z,14.39
2023-03-12T20:03:43.732Z,14.22
2023-03-12T20:23:47.727Z,15.01
2023-03-12T20:43:53.544Z,15.89
2023-03-12T21:03:59.292Z,15.98
2023-03-12T21:24:05.121Z,16.03
2023-03-12T21:44:10.948Z,15.41
2023-03-12T22:04:16.744Z,13.94
2023-03-12T22:24:22.414Z,13.34
2023-03-12T22:44:28.141Z,14.96
2023-03-12T23:04:33.914Z,14.25
2023-03-12T23:24:39.667Z,12.47
2023-03-12T23:44:45.387Z,12.79
